sensor_id;sensor_type;location;lat;lon;timestamp;pressure;altitude;pressure_sealevel;temperature;humidity
22389;BME280;11362;48.102;11.620;2023-10-19T00:01:39;93784.19;;;24.26;38.74
22389;BME280;11362;48.102;11.620;2023-10-19T00:04:04;93782.16;;;24.26;38.59
22389;BME280;11362;48.102;11.620;2023-10-19T00:06:30;93773.09;;;24.26;38.62
22389;BME280;11362;48.102;11.620;2023-10-19T00:08:55;93783.41;;;24.25;38.58
22389;BME280;11362;48.102;11.620;2023-10-19T00:11:20;93775.06;;;24.25;38.73
22389;BME280;11362;48.102;11.620;2023-10-19T00:13:46;93782.66;;;24.25;38.56
22389;BME280;11362;48.102;11.620;2023-10-19T00:16:11;93782.31;;;24.23;38.61
22389;BME280;11362;48.102;11.620;2023-10-19T00:18:36;93783.09;;;24.23;38.64
22389;BME280;11362;48.102;11.620;2023-10-19T00:21:01;93774.47;;;24.21;38.59
22389;BME280;11362;48.102;11.620;2023-10-19T00:23:27;93774.13;;;24.19;38.58
22389;BME280;11362;48.102;11.620;2023-10-19T00:25:52;93768.56;;;24.19;38.50
22389;BME280;11362;48.102;11.620;2023-10-19T00:28:18;93762.41;;;24.15;38.71
22389;BME280;11362;48.102;11.620;2023-10-19T00:30:44;93756.88;;;24.15;38.65
22389;BME280;11362;48.102;11.620;2023-10-19T00:33:09;93764.88;;;24.13;38.68
22389;BME280;11362;48.102;11.620;2023-10-19T00:35:34;93771.19;;;24.14;38.66
22389;BME280;11362;48.102;11.620;2023-10-19T00:38:00;93767.16;;;24.15;38.73
22389;BME280;11362;48.102;11.620;2023-10-19T00:40:25;93759.63;;;24.15;38.38
22389;BME280;11362;48.102;11.620;2023-10-19T00:42:51;93755.63;;;24.16;38.43
22389;BME280;11362;48.102;11.620;2023-10-19T00:45:16;93758.09;;;24.14;38.56
22389;BME280;11362;48.102;11.620;2023-10-19T00:47:41;93749.44;;;24.12;38.57
22389;BME280;11362;48.102;11.620;2023-10-19T00:50:07;93744.38;;;24.11;38.58
22389;BME280;11362;48.102;11.620;2023-10-19T00:52:33;93742.81;;;24.10;38.61
22389;BME280;11362;48.102;11.620;2023-10-19T00:54:58;93743.00;;;24.15;38.48
22389;BME280;11362;48.102;11.620;2023-10-19T00:57:25;93738.69;;;24.14;38.50
22389;BME280;11362;48.102;11.620;2023-10-19T00:59:50;93739.91;;;24.13;38.49
22389;BME280;11362;48.102;11.620;2023-10-19T01:02:16;93732.78;;;24.12;38.47
22389;BME280;11362;48.102;11.620;2023-10-19T01:04:46;93739.44;;;24.15;38.39
22389;BME280;11362;48.102;11.620;2023-10-19T01:07:12;93736.22;;;24.16;38.31
22389;BME280;11362;48.102;11.620;2023-10-19T01:09:38;93738.97;;;24.16;38.46
22389;BME280;11362;48.102;11.620;2023-10-19T01:12:04;93720.50;;;24.13;38.54
22389;BME280;11362;48.102;11.620;2023-10-19T01:14:29;93709.25;;;24.17;38.40
22389;BME280;11362;48.102;11.620;2023-10-19T01:16:54;93705.69;;;24.16;38.36
22389;BME280;11362;48.102;11.620;2023-10-19T01:19:20;93722.03;;;24.14;38.38
22389;BME280;11362;48.102;11.620;2023-10-19T01:21:45;93726.78;;;24.14;38.27
22389;BME280;11362;48.102;11.620;2023-10-19T01:24:10;93733.00;;;24.18;38.31
22389;BME280;11362;48.102;11.620;2023-10-19T01:26:36;93730.66;;;24.16;38.38
22389;BME280;11362;48.102;11.620;2023-10-19T01:29:01;93731.91;;;24.15;38.16
22389;BME280;11362;48.102;11.620;2023-10-19T01:31:26;93733.75;;;24.18;38.21
22389;BME280;11362;48.102;11.620;2023-10-19T01:33:51;93736.66;;;24.15;38.30
22389;BME280;11362;48.102;11.620;2023-10-19T01:36:17;93739.91;;;24.13;38.26
22389;BME280;11362;48.102;11.620;2023-10-19T01:38:42;93749.78;;;24.14;38.31
22389;BME280;11362;48.102;11.620;2023-10-19T01:41:09;93729.25;;;24.12;38.25
22389;BME280;11362;48.102;11.620;2023-10-19T01:43:34;93727.25;;;24.12;38.34
22389;BME280;11362;48.102;11.620;2023-10-19T01:46:00;93725.25;;;24.13;38.37
22389;BME280;11362;48.102;11.620;2023-10-19T01:48:26;93727.59;;;24.14;38.25
22389;BME280;11362;48.102;11.620;2023-10-19T01:50:51;93735.13;;;24.14;37.87
22389;BME280;11362;48.102;11.620;2023-10-19T01:53:17;93729.25;;;24.12;38.17
22389;BME280;11362;48.102;11.620;2023-10-19T01:55:44;93734.16;;;24.08;38.25
22389;BME280;11362;48.102;11.620;2023-10-19T01:58:09;93725.09;;;24.07;38.35
22389;BME280;11362;48.102;11.620;2023-10-19T02:00:35;93730.63;;;24.07;38.23
22389;BME280;11362;48.102;11.620;2023-10-19T02:03:00;93734.66;;;24.06;38.22
22389;BME280;11362;48.102;11.620;2023-10-19T02:05:27;93717.66;;;24.04;38.32
22389;BME280;11362;48.102;11.620;2023-10-19T02:07:52;93716.50;;;24.14;38.12
22389;BME280;11362;48.102;11.620;2023-10-19T02:10:17;93702.28;;;24.12;38.16
22389;BME280;11362;48.102;11.620;2023-10-19T02:12:43;93691.66;;;24.11;38.14
22389;BME280;11362;48.102;11.620;2023-10-19T02:15:08;93696.72;;;24.12;37.96
22389;BME280;11362;48.102;11.620;2023-10-19T02:17:33;93718.03;;;24.15;37.94
22389;BME280;11362;48.102;11.620;2023-10-19T02:19:58;93712.78;;;24.17;37.90
22389;BME280;11362;48.102;11.620;2023-10-19T02:22:24;93720.94;;;24.12;37.95
22389;BME280;11362;48.102;11.620;2023-10-19T02:24:49;93717.38;;;24.11;37.97
22389;BME280;11362;48.102;11.620;2023-10-19T02:27:14;93714.16;;;24.13;37.99
22389;BME280;11362;48.102;11.620;2023-10-19T02:29:39;93713.72;;;24.14;37.91
22389;BME280;11362;48.102;11.620;2023-10-19T02:32:05;93721.56;;;24.16;38.02
22389;BME280;11362;48.102;11.620;2023-10-19T02:34:30;93723.56;;;24.15;38.03
22389;BME280;11362;48.102;11.620;2023-10-19T02:36:55;93716.50;;;24.14;37.89
22389;BME280;11362;48.102;11.620;2023-10-19T02:39:21;93716.00;;;24.16;37.76
22389;BME280;11362;48.102;11.620;2023-10-19T02:41:48;93705.38;;;24.14;37.92
22389;BME280;11362;48.102;11.620;2023-10-19T02:44:15;93705.38;;;24.14;37.92
22389;BME280;11362;48.102;11.620;2023-10-19T02:46:41;93698.31;;;24.13;37.89
22389;BME280;11362;48.102;11.620;2023-10-19T02:49:07;93699.06;;;24.14;38.08
22389;BME280;11362;48.102;11.620;2023-10-19T02:51:33;93695.53;;;24.13;37.87
22389;BME280;11362;48.102;11.620;2023-10-19T02:53:58;93695.84;;;24.15;37.96
22389;BME280;11362;48.102;11.620;2023-10-19T02:56:23;93689.50;;;24.15;37.90
22389;BME280;11362;48.102;11.620;2023-10-19T02:58:49;93697.50;;;24.13;37.82
22389;BME280;11362;48.102;11.620;2023-10-19T03:01:19;93688.41;;;24.12;37.85
22389;BME280;11362;48.102;11.620;2023-10-19T03:03:45;93693.97;;;24.12;37.97
22389;BME280;11362;48.102;11.620;2023-10-19T03:06:10;93694.28;;;24.14;37.91
22389;BME280;11362;48.102;11.620;2023-10-19T03:08:35;93691.53;;;24.14;37.79
22389;BME280;11362;48.102;11.620;2023-10-19T03:11:01;93682.72;;;24.16;37.90
22389;BME280;11362;48.102;11.620;2023-10-19T03:13:26;93683.94;;;24.15;37.46
22389;BME280;11362;48.102;11.620;2023-10-19T03:15:51;93683.19;;;24.14;37.81
22389;BME280;11362;48.102;11.620;2023-10-19T03:18:17;93672.84;;;24.15;37.80
22389;BME280;11362;48.102;11.620;2023-10-19T03:20:42;93676.88;;;24.14;37.82
22389;BME280;11362;48.102;11.620;2023-10-19T03:23:07;93680.09;;;24.12;37.92
22389;BME280;11362;48.102;11.620;2023-10-19T03:25:32;93675.78;;;24.11;37.88
22389;BME280;11362;48.102;11.620;2023-10-19T03:27:58;93668.69;;;24.10;37.92
22389;BME280;11362;48.102;11.620;2023-10-19T03:30:23;93662.69;;;24.12;37.84
22389;BME280;11362;48.102;11.620;2023-10-19T03:32:48;93657.91;;;24.12;37.75
22389;BME280;11362;48.102;11.620;2023-10-19T03:35:14;93659.13;;;24.11;37.88
22389;BME280;11362;48.102;11.620;2023-10-19T03:37:39;93653.91;;;24.13;37.72
22389;BME280;11362;48.102;11.620;2023-10-19T03:40:05;93655.59;;;24.11;37.93
22389;BME280;11362;48.102;11.620;2023-10-19T03:42:30;93653.91;;;24.13;37.78
22389;BME280;11362;48.102;11.620;2023-10-19T03:44:56;93646.81;;;24.12;37.76
22389;BME280;11362;48.102;11.620;2023-10-19T03:47:21;93642.81;;;24.13;37.59
22389;BME280;11362;48.102;11.620;2023-10-19T03:49:47;93646.81;;;24.12;37.96
22389;BME280;11362;48.102;11.620;2023-10-19T03:52:13;93640.34;;;24.15;38.03
22389;BME280;11362;48.102;11.620;2023-10-19T03:54:39;93643.44;;;24.17;38.06
22389;BME280;11362;48.102;11.620;2023-10-19T03:57:04;93639.41;;;24.18;38.25
22389;BME280;11362;48.102;11.620;2023-10-19T03:59:29;93605.38;;;24.18;38.32
22389;BME280;11362;48.102;11.620;2023-10-19T04:01:55;93603.06;;;24.16;38.32
22389;BME280;11362;48.102;11.620;2023-10-19T04:04:20;93607.38;;;24.17;38.55
22389;BME280;11362;48.102;11.620;2023-10-19T04:06:46;93644.66;;;24.16;38.55
22389;BME280;11362;48.102;11.620;2023-10-19T04:09:11;93637.88;;;24.17;38.61
22389;BME280;11362;48.102;11.620;2023-10-19T04:11:37;93637.13;;;24.17;38.62
22389;BME280;11362;48.102;11.620;2023-10-19T04:14:02;93639.41;;;24.18;38.63
22389;BME280;11362;48.102;11.620;2023-10-19T04:16:28;93628.81;;;24.17;38.64
22389;BME280;11362;48.102;11.620;2023-10-19T04:18:53;93637.13;;;24.17;38.67
22389;BME280;11362;48.102;11.620;2023-10-19T04:21:18;93638.19;;;24.19;38.67
22389;BME280;11362;48.102;11.620;2023-10-19T04:23:44;93636.66;;;24.18;38.70
22389;BME280;11362;48.102;11.620;2023-10-19T04:26:09;93633.88;;;24.18;38.65
22389;BME280;11362;48.102;11.620;2023-10-19T04:28:34;93627.56;;;24.18;38.82
22389;BME280;11362;48.102;11.620;2023-10-19T04:30:59;93623.56;;;24.19;38.65
22389;BME280;11362;48.102;11.620;2023-10-19T04:33:25;93625.25;;;24.16;38.66
22389;BME280;11362;48.102;11.620;2023-10-19T04:35:50;93622.31;;;24.20;38.87
22389;BME280;11362;48.102;11.620;2023-10-19T04:38:15;93629.09;;;24.19;39.09
22389;BME280;11362;48.102;11.620;2023-10-19T04:40:40;93618.75;;;24.19;39.07
22389;BME280;11362;48.102;11.620;2023-10-19T04:43:06;93614.78;;;24.20;38.90
22389;BME280;11362;48.102;11.620;2023-10-19T04:45:31;93614.00;;;24.20;39.03
22389;BME280;11362;48.102;11.620;2023-10-19T04:47:56;93628.66;;;24.20;38.97
22389;BME280;11362;48.102;11.620;2023-10-19T04:50:21;93612.31;;;24.22;38.93
22389;BME280;11362;48.102;11.620;2023-10-19T04:52:47;93617.88;;;24.22;38.86
22389;BME280;11362;48.102;11.620;2023-10-19T04:55:13;93613.06;;;24.23;38.74
22389;BME280;11362;48.102;11.620;2023-10-19T04:57:38;93622.16;;;24.23;38.95
22389;BME280;11362;48.102;11.620;2023-10-19T05:00:04;93609.84;;;24.24;38.85
22389;BME280;11362;48.102;11.620;2023-10-19T05:02:29;93608.59;;;24.25;39.02
22389;BME280;11362;48.102;11.620;2023-10-19T05:04:54;93613.69;;;24.27;39.13
22389;BME280;11362;48.102;11.620;2023-10-19T05:07:20;93612.91;;;24.26;38.99
22389;BME280;11362;48.102;11.620;2023-10-19T05:09:46;93600.59;;;24.27;39.22
22389;BME280;11362;48.102;11.620;2023-10-19T05:12:13;93604.13;;;24.28;39.24
22389;BME280;11362;48.102;11.620;2023-10-19T05:14:39;93600.28;;;24.25;39.87
22389;BME280;11362;48.102;11.620;2023-10-19T05:17:05;93601.81;;;24.26;39.23
22389;BME280;11362;48.102;11.620;2023-10-19T05:19:34;93597.81;;;24.27;39.17
22389;BME280;11362;48.102;11.620;2023-10-19T05:22:00;93595.38;;;24.29;39.41
22389;BME280;11362;48.102;11.620;2023-10-19T05:24:26;93596.59;;;24.28;39.29
22389;BME280;11362;48.102;11.620;2023-10-19T05:26:52;93564.50;;;24.27;39.52
22389;BME280;11362;48.102;11.620;2023-10-19T05:29:17;93567.63;;;24.29;39.46
22389;BME280;11362;48.102;11.620;2023-10-19T05:31:42;93566.84;;;24.29;39.66
22389;BME280;11362;48.102;11.620;2023-10-19T05:34:07;93571.63;;;24.28;39.48
22389;BME280;11362;48.102;11.620;2023-10-19T05:36:33;93579.63;;;24.26;39.53
22389;BME280;11362;48.102;11.620;2023-10-19T05:38:58;93581.16;;;24.27;39.40
22389;BME280;11362;48.102;11.620;2023-10-19T05:41:23;93576.53;;;24.24;39.53
22389;BME280;11362;48.102;11.620;2023-10-19T05:43:48;93622.47;;;24.25;39.41
22389;BME280;11362;48.102;11.620;2023-10-19T05:46:14;93624.50;;;24.25;39.44
22389;BME280;11362;48.102;11.620;2023-10-19T05:48:39;93624.94;;;24.23;39.57
22389;BME280;11362;48.102;11.620;2023-10-19T05:51:04;93573.63;;;24.19;39.42
22389;BME280;11362;48.102;11.620;2023-10-19T05:53:29;93578.88;;;24.17;39.50
22389;BME280;11362;48.102;11.620;2023-10-19T05:55:55;93623.72;;;24.15;39.45
22389;BME280;11362;48.102;11.620;2023-10-19T05:58:20;93599.19;;;24.14;39.56
22389;BME280;11362;48.102;11.620;2023-10-19T06:00:45;93587.00;;;24.11;39.47
22389;BME280;11362;48.102;11.620;2023-10-19T06:03:11;93589.78;;;24.11;39.44
22389;BME280;11362;48.102;11.620;2023-10-19T06:05:36;93595.97;;;24.15;39.22
22389;BME280;11362;48.102;11.620;2023-10-19T06:08:01;93600.72;;;24.15;39.07
22389;BME280;11362;48.102;11.620;2023-10-19T06:10:28;93596.28;;;24.17;39.08
22389;BME280;11362;48.102;11.620;2023-10-19T06:12:54;93591.50;;;24.18;39.00
22389;BME280;11362;48.102;11.620;2023-10-19T06:15:21;93591.03;;;24.19;38.91
22389;BME280;11362;48.102;11.620;2023-10-19T06:17:47;93594.72;;;24.16;38.91
22389;BME280;11362;48.102;11.620;2023-10-19T06:20:13;93594.72;;;24.16;39.00
22389;BME280;11362;48.102;11.620;2023-10-19T06:22:38;93592.88;;;24.13;39.01
22389;BME280;11362;48.102;11.620;2023-10-19T06:25:04;93595.19;;;24.15;39.11
22389;BME280;11362;48.102;11.620;2023-10-19T06:27:29;93604.91;;;24.19;38.91
22389;BME280;11362;48.102;11.620;2023-10-19T06:29:55;93598.44;;;24.22;38.76
22389;BME280;11362;48.102;11.620;2023-10-19T06:32:20;93581.50;;;24.20;38.64
22389;BME280;11362;48.102;11.620;2023-10-19T06:34:45;93575.16;;;24.20;38.75
22389;BME280;11362;48.102;11.620;2023-10-19T06:37:10;93579.31;;;24.24;38.72
22389;BME280;11362;48.102;11.620;2023-10-19T06:39:36;93621.53;;;24.19;38.86
22389;BME280;11362;48.102;11.620;2023-10-19T06:42:02;93574.38;;;24.01;37.69
22389;BME280;11362;48.102;11.620;2023-10-19T06:44:27;93602.25;;;24.07;37.72
22389;BME280;11362;48.102;11.620;2023-10-19T06:46:52;93600.28;;;24.07;37.87
22389;BME280;11362;48.102;11.620;2023-10-19T06:49:18;93589.03;;;24.11;38.02
22389;BME280;11362;48.102;11.620;2023-10-19T06:51:43;93584.88;;;24.15;38.54
22389;BME280;11362;48.102;11.620;2023-10-19T06:54:08;93581.66;;;24.17;38.55
22389;BME280;11362;48.102;11.620;2023-10-19T06:56:33;93584.41;;;24.17;38.53
22389;BME280;11362;48.102;11.620;2023-10-19T06:58:59;93583.94;;;24.18;38.76
22389;BME280;11362;48.102;11.620;2023-10-19T07:01:24;93578.38;;;24.18;38.85
22389;BME280;11362;48.102;11.620;2023-10-19T07:03:49;93588.25;;;24.19;38.81
22389;BME280;11362;48.102;11.620;2023-10-19T07:06:14;93579.47;;;24.21;38.96
22389;BME280;11362;48.102;11.620;2023-10-19T07:08:40;93583.19;;;24.18;38.99
22389;BME280;11362;48.102;11.620;2023-10-19T07:11:05;93580.72;;;24.20;38.93
22389;BME280;11362;48.102;11.620;2023-10-19T07:13:31;93575.94;;;24.20;38.62
22389;BME280;11362;48.102;11.620;2023-10-19T07:15:56;93574.72;;;24.21;38.90
22389;BME280;11362;48.102;11.620;2023-10-19T07:18:21;93579.94;;;24.19;38.91
22389;BME280;11362;48.102;11.620;2023-10-19T07:20:47;93583.34;;;24.23;38.81
22389;BME280;11362;48.102;11.620;2023-10-19T07:23:12;93584.56;;;24.22;38.97
22389;BME280;11362;48.102;11.620;2023-10-19T07:25:37;93583.03;;;24.21;39.00
22389;BME280;11362;48.102;11.620;2023-10-19T07:28:03;93592.88;;;24.22;38.81
22389;BME280;11362;48.102;11.620;2023-10-19T07:30:28;93587.66;;;24.24;39.01
22389;BME280;11362;48.102;11.620;2023-10-19T07:32:53;93588.59;;;24.21;39.13
22389;BME280;11362;48.102;11.620;2023-10-19T07:35:19;93583.78;;;24.22;39.02
22389;BME280;11362;48.102;11.620;2023-10-19T07:37:44;93590.88;;;24.23;39.30
22389;BME280;11362;48.102;11.620;2023-10-19T07:40:10;93580.56;;;24.23;39.04
22389;BME280;11362;48.102;11.620;2023-10-19T07:42:35;93605.06;;;24.25;39.04
22389;BME280;11362;48.102;11.620;2023-10-19T07:45:00;93559.75;;;24.28;39.19
22389;BME280;11362;48.102;11.620;2023-10-19T07:47:26;93587.94;;;24.26;38.84
22389;BME280;11362;48.102;11.620;2023-10-19T07:49:51;93591.06;;;24.28;38.87
22389;BME280;11362;48.102;11.620;2023-10-19T07:52:16;93584.25;;;24.29;38.98
22389;BME280;11362;48.102;11.620;2023-10-19T07:54:42;93582.72;;;24.28;39.02
22389;BME280;11362;48.102;11.620;2023-10-19T07:57:07;93577.19;;;24.28;38.95
22389;BME280;11362;48.102;11.620;2023-10-19T07:59:33;93583.47;;;24.29;38.98
22389;BME280;11362;48.102;11.620;2023-10-19T08:01:58;93577.19;;;24.28;38.90
22389;BME280;11362;48.102;11.620;2023-10-19T08:04:24;93575.63;;;24.27;39.05
22389;BME280;11362;48.102;11.620;2023-10-19T08:06:49;93571.31;;;24.26;39.11
22389;BME280;11362;48.102;11.620;2023-10-19T08:09:14;93566.84;;;24.29;39.08
22389;BME280;11362;48.102;11.620;2023-10-19T08:11:40;93558.97;;;24.27;39.26
22389;BME280;11362;48.102;11.620;2023-10-19T08:14:05;93552.22;;;24.28;39.18
22389;BME280;11362;48.102;11.620;2023-10-19T08:16:30;93552.81;;;24.32;39.13
22389;BME280;11362;48.102;11.620;2023-10-19T08:18:57;93554.03;;;24.31;39.40
22389;BME280;11362;48.102;11.620;2023-10-19T08:21:22;93548.78;;;24.33;39.26
22389;BME280;11362;48.102;11.620;2023-10-19T08:23:47;93551.56;;;24.33;39.18
22389;BME280;11362;48.102;11.620;2023-10-19T08:26:13;93542.78;;;24.35;39.24
22389;BME280;11362;48.102;11.620;2023-10-19T08:28:38;93539.72;;;24.33;39.27
22389;BME280;11362;48.102;11.620;2023-10-19T08:31:03;93543.25;;;24.33;39.27
22389;BME280;11362;48.102;11.620;2023-10-19T08:33:32;93536.16;;;24.32;39.32
22389;BME280;11362;48.102;11.620;2023-10-19T08:35:58;93542.00;;;24.34;39.23
22389;BME280;11362;48.102;11.620;2023-10-19T08:38:23;93530.59;;;24.32;39.50
22389;BME280;11362;48.102;11.620;2023-10-19T08:40:49;93536.16;;;24.32;39.51
22389;BME280;11362;48.102;11.620;2023-10-19T08:43:15;93537.09;;;24.29;39.46
22389;BME280;11362;48.102;11.620;2023-10-19T08:45:41;93534.31;;;24.29;39.53
22389;BME280;11362;48.102;11.620;2023-10-19T08:48:07;93541.13;;;24.28;39.53
22389;BME280;11362;48.102;11.620;2023-10-19T08:50:33;93537.84;;;24.30;39.44
22389;BME280;11362;48.102;11.620;2023-10-19T08:53:01;93535.22;;;24.26;39.62
22389;BME280;11362;48.102;11.620;2023-10-19T08:55:26;93541.41;;;24.30;39.59
22389;BME280;11362;48.102;11.620;2023-10-19T08:57:53;93537.41;;;24.31;39.50
22389;BME280;11362;48.102;11.620;2023-10-19T09:00:20;93533.69;;;24.34;39.55
22389;BME280;11362;48.102;11.620;2023-10-19T09:02:45;93534.00;;;24.36;39.69
22389;BME280;11362;48.102;11.620;2023-10-19T09:05:11;93531.69;;;24.35;39.67
22389;BME280;11362;48.102;11.620;2023-10-19T09:07:36;93535.56;;;24.37;39.46
22389;BME280;11362;48.102;11.620;2023-10-19T09:10:02;93530.59;;;24.41;39.59
22389;BME280;11362;48.102;11.620;2023-10-19T09:12:27;93536.16;;;24.41;39.63
22389;BME280;11362;48.102;11.620;2023-10-19T09:14:53;93525.03;;;24.41;39.53
22389;BME280;11362;48.102;11.620;2023-10-19T09:17:28;93522.75;;;24.40;39.82
22389;BME280;11362;48.102;11.620;2023-10-19T09:19:54;93532.31;;;24.39;39.74
22389;BME280;11362;48.102;11.620;2023-10-19T09:22:19;93525.19;;;24.38;39.58
22389;BME280;11362;48.102;11.620;2023-10-19T09:24:45;93530.31;;;24.39;39.66
22389;BME280;11362;48.102;11.620;2023-10-19T09:27:10;93527.53;;;24.39;39.86
22389;BME280;11362;48.102;11.620;2023-10-19T09:29:36;93534.59;;;24.40;39.98
22389;BME280;11362;48.102;11.620;2023-10-19T09:32:01;93527.97;;;24.38;39.80
22389;BME280;11362;48.102;11.620;2023-10-19T09:34:29;93531.25;;;24.36;39.85
22389;BME280;11362;48.102;11.620;2023-10-19T09:36:55;93526.78;;;24.39;39.83
22389;BME280;11362;48.102;11.620;2023-10-19T09:39:20;93529.84;;;24.41;39.87
22389;BME280;11362;48.102;11.620;2023-10-19T09:41:46;93531.38;;;24.42;40.00
22389;BME280;11362;48.102;11.620;2023-10-19T09:44:11;93532.91;;;24.43;40.08
22389;BME280;11362;48.102;11.620;2023-10-19T09:46:37;93521.06;;;24.42;39.97
22389;BME280;11362;48.102;11.620;2023-10-19T09:49:02;93508.25;;;24.45;40.03
22389;BME280;11362;48.102;11.620;2023-10-19T09:51:28;93515.81;;;24.44;40.13
22389;BME280;11362;48.102;11.620;2023-10-19T09:54:00;93507.47;;;24.44;40.16
22389;BME280;11362;48.102;11.620;2023-10-19T09:56:33;93510.56;;;24.46;40.25
22389;BME280;11362;48.102;11.620;2023-10-19T09:59:05;93516.09;;;24.46;40.13
22389;BME280;11362;48.102;11.620;2023-10-19T10:02:10;93514.88;;;24.47;40.21
22389;BME280;11362;48.102;11.620;2023-10-19T10:04:36;93503.47;;;24.45;40.08
22389;BME280;11362;48.102;11.620;2023-10-19T10:07:01;93507.03;;;24.46;40.06
22389;BME280;11362;48.102;11.620;2023-10-19T10:09:26;93499.47;;;24.46;40.20
22389;BME280;11362;48.102;11.620;2023-10-19T10:11:52;93494.84;;;24.43;39.98
22389;BME280;11362;48.102;11.620;2023-10-19T10:14:27;93490.38;;;24.46;40.11
22389;BME280;11362;48.102;11.620;2023-10-19T10:17:02;93492.38;;;24.45;40.42
22389;BME280;11362;48.102;11.620;2023-10-19T10:19:28;93511.50;;;24.43;40.63
22389;BME280;11362;48.102;11.620;2023-10-19T10:22:10;93514.28;;;24.43;40.67
22389;BME280;11362;48.102;11.620;2023-10-19T10:24:40;93512.72;;;24.33;41.22
22389;BME280;11362;48.102;11.620;2023-10-19T10:27:06;93503.47;;;24.27;41.52
22389;BME280;11362;48.102;11.620;2023-10-19T10:29:31;93456.31;;;24.27;41.33
22389;BME280;11362;48.102;11.620;2023-10-19T10:31:57;93468.16;;;24.37;41.10
22389;BME280;11362;48.102;11.620;2023-10-19T10:37:06;93488.69;;;24.39;40.81
22389;BME280;11362;48.102;11.620;2023-10-19T10:39:31;93480.66;;;24.41;41.05
22389;BME280;11362;48.102;11.620;2023-10-19T10:41:57;93476.66;;;24.42;41.04
22389;BME280;11362;48.102;11.620;2023-10-19T10:44:45;93480.19;;;24.43;40.92
22389;BME280;11362;48.102;11.620;2023-10-19T10:47:15;93481.72;;;24.44;40.92
22389;BME280;11362;48.102;11.620;2023-10-19T10:49:58;93480.03;;;24.46;41.05
22389;BME280;11362;48.102;11.620;2023-10-19T10:52:30;93474.19;;;24.44;41.00
22389;BME280;11362;48.102;11.620;2023-10-19T10:54:56;93464.63;;;24.45;40.84
22389;BME280;11362;48.102;11.620;2023-10-19T10:57:22;93457.38;;;24.48;40.93
22389;BME280;11362;48.102;11.620;2023-10-19T11:00:00;93459.69;;;24.49;41.04
22389;BME280;11362;48.102;11.620;2023-10-19T11:02:26;93457.97;;;24.52;41.24
22389;BME280;11362;48.102;11.620;2023-10-19T11:04:51;93454.13;;;24.49;41.09
22389;BME280;11362;48.102;11.620;2023-10-19T11:07:20;93452.56;;;24.48;41.45
22389;BME280;11362;48.102;11.620;2023-10-19T11:09:48;93460.91;;;24.48;41.27
22389;BME280;11362;48.102;11.620;2023-10-19T11:12:14;93451.03;;;24.47;41.31
22389;BME280;11362;48.102;11.620;2023-10-19T11:14:55;93450.75;;;24.45;41.18
22389;BME280;11362;48.102;11.620;2023-10-19T11:17:21;93453.81;;;24.47;41.22
22389;BME280;11362;48.102;11.620;2023-10-19T11:19:47;93446.72;;;24.46;41.07
22389;BME280;11362;48.102;11.620;2023-10-19T11:22:12;93447.97;;;24.45;41.20
22389;BME280;11362;48.102;11.620;2023-10-19T11:24:37;93453.50;;;24.45;41.13
22389;BME280;11362;48.102;11.620;2023-10-19T11:27:03;93441.47;;;24.48;41.14
22389;BME280;11362;48.102;11.620;2023-10-19T11:29:28;93435.91;;;24.48;40.90
22389;BME280;11362;48.102;11.620;2023-10-19T11:31:57;93442.72;;;24.47;40.97
22389;BME280;11362;48.102;11.620;2023-10-19T11:34:23;93424.53;;;24.46;41.04
22389;BME280;11362;48.102;11.620;2023-10-19T11:36:52;93418.97;;;24.46;41.08
22389;BME280;11362;48.102;11.620;2023-10-19T11:39:18;93400.31;;;24.47;41.03
22389;BME280;11362;48.102;11.620;2023-10-19T11:41:43;93397.06;;;24.48;40.88
22389;BME280;11362;48.102;11.620;2023-10-19T11:44:08;93377.97;;;24.50;40.82
22389;BME280;11362;48.102;11.620;2023-10-19T11:46:33;93389.81;;;24.51;40.82
22389;BME280;11362;48.102;11.620;2023-10-19T11:48:59;93380.72;;;24.50;40.91
22389;BME280;11362;48.102;11.620;2023-10-19T11:51:24;93371.91;;;24.52;40.88
22389;BME280;11362;48.102;11.620;2023-10-19T11:53:49;93369.94;;;24.52;40.86
22389;BME280;11362;48.102;11.620;2023-10-19T11:56:14;93365.63;;;24.51;40.85
22389;BME280;11362;48.102;11.620;2023-10-19T11:58:40;93366.38;;;24.52;40.97
22389;BME280;11362;48.102;11.620;2023-10-19T12:01:06;93358.81;;;24.52;40.76
22389;BME280;11362;48.102;11.620;2023-10-19T12:03:31;93352.19;;;24.50;40.90
22389;BME280;11362;48.102;11.620;2023-10-19T12:05:57;93309.31;;;24.51;40.75
22389;BME280;11362;48.102;11.620;2023-10-19T12:08:23;93310.13;;;24.51;40.80
22389;BME280;11362;48.102;11.620;2023-10-19T12:10:50;93314.28;;;24.56;41.52
22389;BME280;11362;48.102;11.620;2023-10-19T12:13:15;93355.44;;;24.57;41.53
22389;BME280;11362;48.102;11.620;2023-10-19T12:15:41;93352.00;;;24.62;41.26
22389;BME280;11362;48.102;11.620;2023-10-19T12:18:06;93389.00;;;24.68;41.67
22389;BME280;11362;48.102;11.620;2023-10-19T12:20:31;93362.03;;;24.69;41.30
22389;BME280;11362;48.102;11.620;2023-10-19T12:22:57;93359.72;;;24.67;41.41
22389;BME280;11362;48.102;11.620;2023-10-19T12:25:22;93349.56;;;24.64;41.81
22389;BME280;11362;48.102;11.620;2023-10-19T12:27:48;93348.00;;;24.63;41.40
22389;BME280;11362;48.102;11.620;2023-10-19T12:30:13;93351.09;;;24.65;41.63
22389;BME280;11362;48.102;11.620;2023-10-19T12:32:38;93345.53;;;24.65;41.63
22389;BME280;11362;48.102;11.620;2023-10-19T12:35:04;93339.50;;;24.67;41.35
22389;BME280;11362;48.102;11.620;2023-10-19T12:37:29;93327.94;;;24.68;41.69
22389;BME280;11362;48.102;11.620;2023-10-19T12:39:55;93319.91;;;24.70;41.80
22389;BME280;11362;48.102;11.620;2023-10-19T12:42:20;93317.09;;;24.79;41.76
22389;BME280;11362;48.102;11.620;2023-10-19T12:44:45;93309.50;;;24.80;42.09
22389;BME280;11362;48.102;11.620;2023-10-19T12:47:11;93279.16;;;24.76;41.68